sensor_id;sensor_type;location;lat;lon;timestamp;temperature;humidity
19050;DHT22;9657;45.940;12.840;2023-04-29T00:01:22;17.90;63.30
19050;DHT22;9657;45.940;12.840;2023-04-29T00:03:50;17.90;63.30
19050;DHT22;9657;45.940;12.840;2023-04-29T00:06:17;17.90;63.30
19050;DHT22;9657;45.940;12.840;2023-04-29T00:08:44;17.90;63.20
19050;DHT22;9657;45.940;12.840;2023-04-29T00:11:12;17.90;63.20
19050;DHT22;9657;45.940;12.840;2023-04-29T00:13:39;17.90;63.20
19050;DHT22;9657;45.940;12.840;2023-04-29T00:16:07;17.90;63.20
19050;DHT22;9657;45.940;12.840;2023-04-29T00:18:34;17.90;63.20
19050;DHT22;9657;45.940;12.840;2023-04-29T00:21:02;17.90;63.30
19050;DHT22;9657;45.940;12.840;2023-04-29T00:23:30;18.00;63.30
19050;DHT22;9657;45.940;12.840;2023-04-29T00:25:58;17.90;63.20
19050;DHT22;9657;45.940;12.840;2023-04-29T00:28:26;17.90;63.20
19050;DHT22;9657;45.940;12.840;2023-04-29T00:30:53;17.90;63.20
19050;DHT22;9657;45.940;12.840;2023-04-29T00:33:20;17.90;63.30
19050;DHT22;9657;45.940;12.840;2023-04-29T00:35:47;17.90;63.20
19050;DHT22;9657;45.940;12.840;2023-04-29T00:38:14;17.90;63.20
19050;DHT22;9657;45.940;12.840;2023-04-29T00:40:41;17.90;63.20
19050;DHT22;9657;45.940;12.840;2023-04-29T00:43:09;17.90;63.20
19050;DHT22;9657;45.940;12.840;2023-04-29T00:45:38;17.90;63.20
19050;DHT22;9657;45.940;12.840;2023-04-29T00:48:05;17.90;63.20
19050;DHT22;9657;45.940;12.840;2023-04-29T00:50:32;17.90;63.20
19050;DHT22;9657;45.940;12.840;2023-04-29T00:53:00;17.90;63.20
19050;DHT22;9657;45.940;12.840;2023-04-29T00:55:27;17.90;63.20
19050;DHT22;9657;45.940;12.840;2023-04-29T00:57:55;17.90;63.50
19050;DHT22;9657;45.940;12.840;2023-04-29T01:02:59;17.90;63.20
19050;DHT22;9657;45.940;12.840;2023-04-29T01:05:26;17.90;63.20
19050;DHT22;9657;45.940;12.840;2023-04-29T01:08:08;17.90;63.20
19050;DHT22;9657;45.940;12.840;2023-04-29T01:10:43;17.90;63.20
19050;DHT22;9657;45.940;12.840;2023-04-29T01:13:17;17.90;63.20
19050;DHT22;9657;45.940;12.840;2023-04-29T01:15:52;17.90;63.20
19050;DHT22;9657;45.940;12.840;2023-04-29T01:18:25;17.90;63.20
19050;DHT22;9657;45.940;12.840;2023-04-29T01:20:53;17.90;63.20
19050;DHT22;9657;45.940;12.840;2023-04-29T01:23:26;17.90;63.20
19050;DHT22;9657;45.940;12.840;2023-04-29T01:25:53;17.90;63.20
19050;DHT22;9657;45.940;12.840;2023-04-29T01:28:28;17.90;63.20
19050;DHT22;9657;45.940;12.840;2023-04-29T01:31:03;17.90;63.20
19050;DHT22;9657;45.940;12.840;2023-04-29T01:33:39;17.90;63.20
19050;DHT22;9657;45.940;12.840;2023-04-29T01:36:14;17.90;63.20
19050;DHT22;9657;45.940;12.840;2023-04-29T01:38:52;17.90;63.20
19050;DHT22;9657;45.940;12.840;2023-04-29T01:41:30;17.90;63.20
19050;DHT22;9657;45.940;12.840;2023-04-29T01:44:02;17.90;63.20
19050;DHT22;9657;45.940;12.840;2023-04-29T01:46:30;17.90;63.20
19050;DHT22;9657;45.940;12.840;2023-04-29T01:48:57;17.90;63.20
19050;DHT22;9657;45.940;12.840;2023-04-29T01:51:24;17.90;63.20
19050;DHT22;9657;45.940;12.840;2023-04-29T01:53:54;17.90;63.30
19050;DHT22;9657;45.940;12.840;2023-04-29T01:56:21;17.90;63.20
19050;DHT22;9657;45.940;12.840;2023-04-29T01:58:48;17.90;63.20
19050;DHT22;9657;45.940;12.840;2023-04-29T02:01:15;17.90;63.30
19050;DHT22;9657;45.940;12.840;2023-04-29T02:03:42;17.80;63.20
19050;DHT22;9657;45.940;12.840;2023-04-29T02:06:10;17.90;63.20
19050;DHT22;9657;45.940;12.840;2023-04-29T02:08:37;17.80;63.20
19050;DHT22;9657;45.940;12.840;2023-04-29T02:11:05;17.80;63.20
19050;DHT22;9657;45.940;12.840;2023-04-29T02:13:32;17.80;63.20
19050;DHT22;9657;45.940;12.840;2023-04-29T02:16:06;17.80;63.20
19050;DHT22;9657;45.940;12.840;2023-04-29T02:18:34;17.80;63.20
19050;DHT22;9657;45.940;12.840;2023-04-29T02:21:01;17.80;63.20
19050;DHT22;9657;45.940;12.840;2023-04-29T02:23:28;17.80;63.20
19050;DHT22;9657;45.940;12.840;2023-04-29T02:25:55;17.80;63.20
19050;DHT22;9657;45.940;12.840;2023-04-29T02:28:24;17.80;63.20
19050;DHT22;9657;45.940;12.840;2023-04-29T02:30:51;17.80;63.20
19050;DHT22;9657;45.940;12.840;2023-04-29T02:33:19;17.80;63.20
19050;DHT22;9657;45.940;12.840;2023-04-29T02:35:46;17.80;63.20
19050;DHT22;9657;45.940;12.840;2023-04-29T02:38:13;17.80;63.20
19050;DHT22;9657;45.940;12.840;2023-04-29T02:40:41;17.80;63.20
19050;DHT22;9657;45.940;12.840;2023-04-29T02:43:08;17.80;63.20
19050;DHT22;9657;45.940;12.840;2023-04-29T02:45:37;17.80;63.20
19050;DHT22;9657;45.940;12.840;2023-04-29T02:48:04;17.80;63.20
19050;DHT22;9657;45.940;12.840;2023-04-29T02:50:31;17.80;63.20
19050;DHT22;9657;45.940;12.840;2023-04-29T02:52:59;17.80;63.20
19050;DHT22;9657;45.940;12.840;2023-04-29T02:55:26;17.80;63.20
19050;DHT22;9657;45.940;12.840;2023-04-29T02:57:53;17.80;63.20
19050;DHT22;9657;45.940;12.840;2023-04-29T03:00:20;17.80;63.20
19050;DHT22;9657;45.940;12.840;2023-04-29T03:02:48;17.80;63.20
19050;DHT22;9657;45.940;12.840;2023-04-29T03:05:18;17.80;63.20
19050;DHT22;9657;45.940;12.840;2023-04-29T03:07:45;17.80;63.20
19050;DHT22;9657;45.940;12.840;2023-04-29T03:10:12;17.80;63.20
19050;DHT22;9657;45.940;12.840;2023-04-29T03:12:39;17.80;63.20
19050;DHT22;9657;45.940;12.840;2023-04-29T03:15:07;17.80;63.20
19050;DHT22;9657;45.940;12.840;2023-04-29T03:17:35;17.80;63.20
19050;DHT22;9657;45.940;12.840;2023-04-29T03:20:05;17.80;63.20
19050;DHT22;9657;45.940;12.840;2023-04-29T03:22:32;17.80;63.20
19050;DHT22;9657;45.940;12.840;2023-04-29T03:24:59;17.80;63.20
19050;DHT22;9657;45.940;12.840;2023-04-29T03:27:26;17.80;63.20
19050;DHT22;9657;45.940;12.840;2023-04-29T03:29:53;17.80;63.20
19050;DHT22;9657;45.940;12.840;2023-04-29T03:32:20;17.80;63.20
19050;DHT22;9657;45.940;12.840;2023-04-29T03:34:47;17.70;63.10
19050;DHT22;9657;45.940;12.840;2023-04-29T03:37:16;17.70;63.10
19050;DHT22;9657;45.940;12.840;2023-04-29T03:39:43;17.70;63.10
19050;DHT22;9657;45.940;12.840;2023-04-29T03:42:10;17.70;63.10
19050;DHT22;9657;45.940;12.840;2023-04-29T03:44:37;17.80;63.10
19050;DHT22;9657;45.940;12.840;2023-04-29T03:47:04;17.80;63.20
19050;DHT22;9657;45.940;12.840;2023-04-29T03:49:31;17.70;63.10
19050;DHT22;9657;45.940;12.840;2023-04-29T03:51:58;17.70;63.10
19050;DHT22;9657;45.940;12.840;2023-04-29T03:54:27;17.80;63.20
19050;DHT22;9657;45.940;12.840;2023-04-29T03:56:54;17.70;63.10
19050;DHT22;9657;45.940;12.840;2023-04-29T03:59:21;17.70;63.10
19050;DHT22;9657;45.940;12.840;2023-04-29T04:01:48;17.70;63.10
19050;DHT22;9657;45.940;12.840;2023-04-29T04:04:16;17.70;63.10
19050;DHT22;9657;45.940;12.840;2023-04-29T04:06:43;17.70;63.10
19050;DHT22;9657;45.940;12.840;2023-04-29T04:09:15;17.70;63.10
19050;DHT22;9657;45.940;12.840;2023-04-29T04:11:44;17.70;63.10
19050;DHT22;9657;45.940;12.840;2023-04-29T04:14:11;17.70;63.10
19050;DHT22;9657;45.940;12.840;2023-04-29T04:16:38;17.70;63.10
19050;DHT22;9657;45.940;12.840;2023-04-29T04:19:05;17.70;63.10
19050;DHT22;9657;45.940;12.840;2023-04-29T04:21:32;17.70;63.10
19050;DHT22;9657;45.940;12.840;2023-04-29T04:23:59;17.70;63.10
19050;DHT22;9657;45.940;12.840;2023-04-29T04:26:26;17.70;63.10
19050;DHT22;9657;45.940;12.840;2023-04-29T04:28:55;17.70;63.10
19050;DHT22;9657;45.940;12.840;2023-04-29T04:31:22;17.70;63.10
19050;DHT22;9657;45.940;12.840;2023-04-29T04:33:49;17.70;63.10
19050;DHT22;9657;45.940;12.840;2023-04-29T04:36:16;17.70;63.10
19050;DHT22;9657;45.940;12.840;2023-04-29T04:38:43;17.70;63.10
19050;DHT22;9657;45.940;12.840;2023-04-29T04:41:10;17.70;63.10
19050;DHT22;9657;45.940;12.840;2023-04-29T04:43:37;17.70;63.10
19050;DHT22;9657;45.940;12.840;2023-04-29T04:46:10;17.70;63.10
19050;DHT22;9657;45.940;12.840;2023-04-29T04:48:37;17.70;63.10
19050;DHT22;9657;45.940;12.840;2023-04-29T04:51:08;17.70;63.20
19050;DHT22;9657;45.940;12.840;2023-04-29T04:53:35;17.70;63.30
19050;DHT22;9657;45.940;12.840;2023-04-29T04:56:02;17.70;63.40
19050;DHT22;9657;45.940;12.840;2023-04-29T04:58:30;17.70;63.50
19050;DHT22;9657;45.940;12.840;2023-04-29T05:00:57;17.70;63.60
19050;DHT22;9657;45.940;12.840;2023-04-29T05:03:26;17.70;63.70
19050;DHT22;9657;45.940;12.840;2023-04-29T05:05:53;17.70;63.70
19050;DHT22;9657;45.940;12.840;2023-04-29T05:08:21;17.70;63.80
19050;DHT22;9657;45.940;12.840;2023-04-29T05:10:48;17.70;63.80
19050;DHT22;9657;45.940;12.840;2023-04-29T05:13:15;17.70;63.90
19050;DHT22;9657;45.940;12.840;2023-04-29T05:15:42;17.70;63.90
19050;DHT22;9657;45.940;12.840;2023-04-29T05:18:09;17.70;63.90
19050;DHT22;9657;45.940;12.840;2023-04-29T05:20:38;17.70;63.90
19050;DHT22;9657;45.940;12.840;2023-04-29T05:23:05;17.70;64.00
19050;DHT22;9657;45.940;12.840;2023-04-29T05:25:32;17.70;64.70
19050;DHT22;9657;45.940;12.840;2023-04-29T05:27:59;17.70;64.00
19050;DHT22;9657;45.940;12.840;2023-04-29T05:30:26;17.70;64.00
19050;DHT22;9657;45.940;12.840;2023-04-29T05:32:53;17.70;64.00
19050;DHT22;9657;45.940;12.840;2023-04-29T05:35:20;17.70;64.10
19050;DHT22;9657;45.940;12.840;2023-04-29T05:37:49;17.70;64.10
19050;DHT22;9657;45.940;12.840;2023-04-29T05:40:16;17.70;64.20
19050;DHT22;9657;45.940;12.840;2023-04-29T05:42:43;17.70;64.10
19050;DHT22;9657;45.940;12.840;2023-04-29T05:45:10;17.70;64.20
19050;DHT22;9657;45.940;12.840;2023-04-29T05:47:38;17.70;64.30
19050;DHT22;9657;45.940;12.840;2023-04-29T05:50:05;17.70;64.20
19050;DHT22;9657;45.940;12.840;2023-04-29T05:52:33;17.70;64.20
19050;DHT22;9657;45.940;12.840;2023-04-29T05:55:01;17.70;64.10
19050;DHT22;9657;45.940;12.840;2023-04-29T05:57:28;17.70;64.00
19050;DHT22;9657;45.940;12.840;2023-04-29T05:59:55;17.70;63.90
19050;DHT22;9657;45.940;12.840;2023-04-29T06:02:24;17.70;63.90
19050;DHT22;9657;45.940;12.840;2023-04-29T06:04:51;17.70;63.70
19050;DHT22;9657;45.940;12.840;2023-04-29T06:07:18;17.70;63.60
19050;DHT22;9657;45.940;12.840;2023-04-29T06:09:45;17.70;63.60
19050;DHT22;9657;45.940;12.840;2023-04-29T06:12:14;17.70;63.50
19050;DHT22;9657;45.940;12.840;2023-04-29T06:14:41;17.70;63.40
19050;DHT22;9657;45.940;12.840;2023-04-29T06:17:08;17.70;63.40
19050;DHT22;9657;45.940;12.840;2023-04-29T06:19:35;17.70;63.30
19050;DHT22;9657;45.940;12.840;2023-04-29T06:22:02;17.70;63.30
19050;DHT22;9657;45.940;12.840;2023-04-29T06:24:29;17.70;63.30
19050;DHT22;9657;45.940;12.840;2023-04-29T06:26:56;17.70;63.30
19050;DHT22;9657;45.940;12.840;2023-04-29T06:29:25;17.70;63.30
19050;DHT22;9657;45.940;12.840;2023-04-29T06:31:52;17.70;63.30
19050;DHT22;9657;45.940;12.840;2023-04-29T06:34:20;17.70;63.40
19050;DHT22;9657;45.940;12.840;2023-04-29T06:36:47;17.60;63.30
19050;DHT22;9657;45.940;12.840;2023-04-29T06:39:14;17.70;63.30
19050;DHT22;9657;45.940;12.840;2023-04-29T06:41:41;17.70;63.30
19050;DHT22;9657;45.940;12.840;2023-04-29T06:44:08;17.70;63.30
19050;DHT22;9657;45.940;12.840;2023-04-29T06:46:38;17.70;63.30
19050;DHT22;9657;45.940;12.840;2023-04-29T06:49:05;17.70;63.30
19050;DHT22;9657;45.940;12.840;2023-04-29T06:51:32;17.70;63.30
19050;DHT22;9657;45.940;12.840;2023-04-29T06:54:00;17.70;63.40
19050;DHT22;9657;45.940;12.840;2023-04-29T06:56:27;17.70;63.30
19050;DHT22;9657;45.940;12.840;2023-04-29T06:58:54;17.70;63.30
19050;DHT22;9657;45.940;12.840;2023-04-29T07:01:21;17.70;63.30
19050;DHT22;9657;45.940;12.840;2023-04-29T07:03:49;17.60;63.30
19050;DHT22;9657;45.940;12.840;2023-04-29T07:06:16;17.70;63.40
19050;DHT22;9657;45.940;12.840;2023-04-29T07:08:43;17.60;63.30
19050;DHT22;9657;45.940;12.840;2023-04-29T07:11:10;17.70;63.40
19050;DHT22;9657;45.940;12.840;2023-04-29T07:13:37;17.70;63.40
19050;DHT22;9657;45.940;12.840;2023-04-29T07:16:07;17.60;63.30
19050;DHT22;9657;45.940;12.840;2023-04-29T07:18:40;17.70;63.50
19050;DHT22;9657;45.940;12.840;2023-04-29T07:21:08;17.70;63.40
19050;DHT22;9657;45.940;12.840;2023-04-29T07:23:35;17.70;63.40
19050;DHT22;9657;45.940;12.840;2023-04-29T07:26:08;17.60;63.40
19050;DHT22;9657;45.940;12.840;2023-04-29T07:28:35;17.70;63.50
19050;DHT22;9657;45.940;12.840;2023-04-29T07:31:02;17.70;63.50
19050;DHT22;9657;45.940;12.840;2023-04-29T07:33:29;17.70;63.50
19050;DHT22;9657;45.940;12.840;2023-04-29T07:35:57;17.70;63.50
19050;DHT22;9657;45.940;12.840;2023-04-29T07:38:26;17.70;63.50
19050;DHT22;9657;45.940;12.840;2023-04-29T07:40:53;17.70;63.50
19050;DHT22;9657;45.940;12.840;2023-04-29T07:43:20;17.70;63.50
19050;DHT22;9657;45.940;12.840;2023-04-29T07:45:48;17.70;63.50
19050;DHT22;9657;45.940;12.840;2023-04-29T07:48:15;17.70;63.60
19050;DHT22;9657;45.940;12.840;2023-04-29T07:50:42;17.70;63.60
19050;DHT22;9657;45.940;12.840;2023-04-29T07:53:09;17.70;63.60
19050;DHT22;9657;45.940;12.840;2023-04-29T07:55:37;17.60;63.50
19050;DHT22;9657;45.940;12.840;2023-04-29T07:58:05;17.70;63.60
19050;DHT22;9657;45.940;12.840;2023-04-29T08:00:32;17.70;63.60
19050;DHT22;9657;45.940;12.840;2023-04-29T08:02:59;17.70;63.60
19050;DHT22;9657;45.940;12.840;2023-04-29T08:05:27;17.70;63.70
19050;DHT22;9657;45.940;12.840;2023-04-29T08:07:55;17.70;63.70
19050;DHT22;9657;45.940;12.840;2023-04-29T08:10:22;17.70;63.70
19050;DHT22;9657;45.940;12.840;2023-04-29T08:12:50;17.70;63.70
19050;DHT22;9657;45.940;12.840;2023-04-29T08:15:17;17.70;63.70
19050;DHT22;9657;45.940;12.840;2023-04-29T08:17:44;17.70;63.70
19050;DHT22;9657;45.940;12.840;2023-04-29T08:20:12;17.70;63.70
19050;DHT22;9657;45.940;12.840;2023-04-29T08:22:39;17.70;63.70
19050;DHT22;9657;45.940;12.840;2023-04-29T08:25:08;17.70;63.70
19050;DHT22;9657;45.940;12.840;2023-04-29T08:27:35;17.70;64.50
19050;DHT22;9657;45.940;12.840;2023-04-29T08:30:04;17.70;63.70
19050;DHT22;9657;45.940;12.840;2023-04-29T08:32:32;17.70;63.70
19050;DHT22;9657;45.940;12.840;2023-04-29T08:34:59;17.70;63.70
19050;DHT22;9657;45.940;12.840;2023-04-29T08:37:26;17.70;63.70
19050;DHT22;9657;45.940;12.840;2023-04-29T08:39:53;17.70;63.70
19050;DHT22;9657;45.940;12.840;2023-04-29T08:42:31;17.70;63.70
19050;DHT22;9657;45.940;12.840;2023-04-29T08:44:59;17.70;63.70
19050;DHT22;9657;45.940;12.840;2023-04-29T08:47:30;17.80;63.70
19050;DHT22;9657;45.940;12.840;2023-04-29T08:50:01;17.80;63.70
19050;DHT22;9657;45.940;12.840;2023-04-29T08:52:29;17.70;63.70
19050;DHT22;9657;45.940;12.840;2023-04-29T08:54:57;17.70;63.60
19050;DHT22;9657;45.940;12.840;2023-04-29T08:57:25;17.70;63.70
19050;DHT22;9657;45.940;12.840;2023-04-29T08:59:52;17.70;63.70
19050;DHT22;9657;45.940;12.840;2023-04-29T09:02:19;17.70;63.70
19050;DHT22;9657;45.940;12.840;2023-04-29T09:04:57;17.80;63.70
19050;DHT22;9657;45.940;12.840;2023-04-29T09:07:27;17.80;63.70
19050;DHT22;9657;45.940;12.840;2023-04-29T09:09:55;17.80;63.70
19050;DHT22;9657;45.940;12.840;2023-04-29T09:12:23;17.80;63.70
19050;DHT22;9657;45.940;12.840;2023-04-29T09:14:50;17.80;63.70
19050;DHT22;9657;45.940;12.840;2023-04-29T09:17:17;17.80;63.70
19050;DHT22;9657;45.940;12.840;2023-04-29T09:19:44;17.80;63.70
19050;DHT22;9657;45.940;12.840;2023-04-29T09:22:13;17.80;63.70
19050;DHT22;9657;45.940;12.840;2023-04-29T09:24:40;17.90;63.70
19050;DHT22;9657;45.940;12.840;2023-04-29T09:27:08;17.90;63.70
19050;DHT22;9657;45.940;12.840;2023-04-29T09:29:36;17.90;63.60
19050;DHT22;9657;45.940;12.840;2023-04-29T09:32:18;18.00;63.50
19050;DHT22;9657;45.940;12.840;2023-04-29T09:34:46;18.00;63.40
19050;DHT22;9657;45.940;12.840;2023-04-29T09:37:24;18.10;63.30
19050;DHT22;9657;45.940;12.840;2023-04-29T09:39:53;18.10;63.20
19050;DHT22;9657;45.940;12.840;2023-04-29T09:42:20;18.20;63.00
19050;DHT22;9657;45.940;12.840;2023-04-29T09:44:47;18.20;62.80
19050;DHT22;9657;45.940;12.840;2023-04-29T09:47:14;18.30;62.80
19050;DHT22;9657;45.940;12.840;2023-04-29T09:49:43;18.30;62.60
19050;DHT22;9657;45.940;12.840;2023-04-29T09:52:12;18.30;62.50
19050;DHT22;9657;45.940;12.840;2023-04-29T09:54:42;18.40;62.40
19050;DHT22;9657;45.940;12.840;2023-04-29T09:57:10;18.40;62.30
19050;DHT22;9657;45.940;12.840;2023-04-29T09:59:39;18.40;62.10
19050;DHT22;9657;45.940;12.840;2023-04-29T10:02:09;18.50;62.10
19050;DHT22;9657;45.940;12.840;2023-04-29T10:04:40;18.50;62.10
19050;DHT22;9657;45.940;12.840;2023-04-29T10:07:08;18.50;61.90
19050;DHT22;9657;45.940;12.840;2023-04-29T10:09:41;18.60;61.90
19050;DHT22;9657;45.940;12.840;2023-04-29T10:12:08;18.60;61.80
19050;DHT22;9657;45.940;12.840;2023-04-29T10:14:40;18.60;61.80
19050;DHT22;9657;45.940;12.840;2023-04-29T10:17:13;18.60;61.80
19050;DHT22;9657;45.940;12.840;2023-04-29T10:19:46;18.60;61.70
19050;DHT22;9657;45.940;12.840;2023-04-29T10:22:25;18.60;61.70
19050;DHT22;9657;45.940;12.840;2023-04-29T10:24:54;18.60;61.70
19050;DHT22;9657;45.940;12.840;2023-04-29T10:27:24;18.60;61.70
19050;DHT22;9657;45.940;12.840;2023-04-29T10:29:52;18.60;61.70
19050;DHT22;9657;45.940;12.840;2023-04-29T10:32:21;18.60;61.70
19050;DHT22;9657;45.940;12.840;2023-04-29T10:34:49;18.60;61.70
19050;DHT22;9657;45.940;12.840;2023-04-29T10:37:18;18.60;61.70
19050;DHT22;9657;45.940;12.840;2023-04-29T10:39:49;18.60;61.70
19050;DHT22;9657;45.940;12.840;2023-04-29T10:42:27;18.60;61.70
19050;DHT22;9657;45.940;12.840;2023-04-29T10:45:16;18.60;61.80
19050;DHT22;9657;45.940;12.840;2023-04-29T10:48:07;18.60;61.80
19050;DHT22;9657;45.940;12.840;2023-04-29T10:53:26;18.60;61.80
19050;DHT22;9657;45.940;12.840;2023-04-29T10:55:56;18.60;61.80
19050;DHT22;9657;45.940;12.840;2023-04-29T10:58:36;18.60;61.90
19050;DHT22;9657;45.940;12.840;2023-04-29T11:01:04;18.60;61.90
19050;DHT22;9657;45.940;12.840;2023-04-29T11:03:49;18.60;62.00
19050;DHT22;9657;45.940;12.840;2023-04-29T11:06:21;18.60;62.00
19050;DHT22;9657;45.940;12.840;2023-04-29T11:08:59;18.60;62.00
19050;DHT22;9657;45.940;12.840;2023-04-29T11:11:40;18.60;62.00
19050;DHT22;9657;45.940;12.840;2023-04-29T11:14:09;18.60;62.10
19050;DHT22;9657;45.940;12.840;2023-04-29T11:16:37;18.60;62.10
19050;DHT22;9657;45.940;12.840;2023-04-29T11:19:05;18.60;62.10
19050;DHT22;9657;45.940;12.840;2023-04-29T11:21:33;18.60;62.10
19050;DHT22;9657;45.940;12.840;2023-04-29T11:24:01;18.60;62.50
19050;DHT22;9657;45.940;12.840;2023-04-29T11:26:29;18.60;62.20
19050;DHT22;9657;45.940;12.840;2023-04-29T11:28:56;18.60;62.10
19050;DHT22;9657;45.940;12.840;2023-04-29T11:31:29;18.60;62.20
19050;DHT22;9657;45.940;12.840;2023-04-29T11:33:57;18.60;62.20
19050;DHT22;9657;45.940;12.840;2023-04-29T11:36:25;18.60;62.20
19050;DHT22;9657;45.940;12.840;2023-04-29T11:38:52;18.60;62.20
19050;DHT22;9657;45.940;12.840;2023-04-29T11:41:20;18.60;62.20
19050;DHT22;9657;45.940;12.840;2023-04-29T11:43:54;18.60;62.20
19050;DHT22;9657;45.940;12.840;2023-04-29T11:46:21;18.60;62.30
19050;DHT22;9657;45.940;12.840;2023-04-29T11:48:49;18.60;62.20
19050;DHT22;9657;45.940;12.840;2023-04-29T11:51:17;18.60;62.30
19050;DHT22;9657;45.940;12.840;2023-04-29T11:53:45;18.60;62.30
19050;DHT22;9657;45.940;12.840;2023-04-29T11:56:12;18.60;62.30
19050;DHT22;9657;45.940;12.840;2023-04-29T11:58:41;18.60;62.30
19050;DHT22;9657;45.940;12.840;2023-04-29T12:01:09;18.60;62.30
19050;DHT22;9657;45.940;12.840;2023-04-29T12:03:36;18.60;62.30
19050;DHT22;9657;45.940;12.840;2023-04-29T12:06:04;18.60;62.30
19050;DHT22;9657;45.940;12.840;2023-04-29T12:08:32;18.60;62.30
19050;DHT22;9657;45.940;12.840;2023-04-29T12:10:59;18.60;62.30
19050;DHT22;9657;45.940;12.840;2023-04-29T12:13:28;18.60;62.30
19050;DHT22;9657;45.940;12.840;2023-04-29T12:15:56;18.60;62.30
19050;DHT22;9657;45.940;12.840;2023-04-29T12:18:24;18.60;62.40
19050;DHT22;9657;45.940;12.840;2023-04-29T12:20:52;18.60;62.40
19050;DHT22;9657;45.940;12.840;2023-04-29T12:23:22;18.60;62.40
19050;DHT22;9657;45.940;12.840;2023-04-29T12:25:52;18.60;62.40
19050;DHT22;9657;45.940;12.840;2023-04-29T12:28:20;18.60;62.40
19050;DHT22;9657;45.940;12.840;2023-04-29T12:30:48;18.70;62.50
19050;DHT22;9657;45.940;12.840;2023-04-29T12:33:19;18.70;62.50
19050;DHT22;9657;45.940;12.840;2023-04-29T12:35:47;18.70;62.50
19050;DHT22;9657;45.940;12.840;2023-04-29T12:38:19;18.60;62.50
19050;DHT22;9657;45.940;12.840;2023-04-29T12:40:47;18.70;62.50
19050;DHT22;9657;45.940;12.840;2023-04-29T12:43:15;18.70;62.50
19050;DHT22;9657;45.940;12.840;2023-04-29T12:45:43;18.70;62.60
19050;DHT22;9657;45.940;12.840;2023-04-29T12:48:11;18.70;62.50
19050;DHT22;9657;45.940;12.840;2023-04-29T12:50:39;18.70;62.60
19050;DHT22;9657;45.940;12.840;2023-04-29T12:53:07;18.70;62.60
19050;DHT22;9657;45.940;12.840;2023-04-29T12:55:35;18.70;62.70
19050;DHT22;9657;45.940;12.840;2023-04-29T12:58:04;18.70;62.70
19050;DHT22;9657;45.940;12.840;2023-04-29T13:00:32;18.70;62.80
19050;DHT22;9657;45.940;12.840;2023-04-29T13:03:01;18.70;62.70
19050;DHT22;9657;45.940;12.840;2023-04-29T13:05:29;18.70;62.70
19050;DHT22;9657;45.940;12.840;2023-04-29T13:07:56;18.70;62.70
19050;DHT22;9657;45.940;12.840;2023-04-29T13:10:23;18.70;62.70
19050;DHT22;9657;45.940;12.840;2023-04-29T13:12:50;18.70;62.70
19050;DHT22;9657;45.940;12.840;2023-04-29T13:15:18;18.70;62.70
19050;DHT22;9657;45.940;12.840;2023-04-29T13:17:46;18.70;62.70
19050;DHT22;9657;45.940;12.840;2023-04-29T13:20:13;18.70;62.70
19050;DHT22;9657;45.940;12.840;2023-04-29T13:22:40;18.70;62.70
19050;DHT22;9657;45.940;12.840;2023-04-29T13:25:08;18.80;62.70
19050;DHT22;9657;45.940;12.840;2023-04-29T13:27:36;18.70;62.70
19050;DHT22;9657;45.940;12.840;2023-04-29T13:30:04;18.80;62.70
19050;DHT22;9657;45.940;12.840;2023-04-29T13:32:33;18.80;62.70
19050;DHT22;9657;45.940;12.840;2023-04-29T13:35:00;18.80;62.70
19050;DHT22;9657;45.940;12.840;2023-04-29T13:37:27;18.80;62.70
19050;DHT22;9657;45.940;12.840;2023-04-29T13:39:54;18.80;62.70
19050;DHT22;9657;45.940;12.840;2023-04-29T13:42:21;18.80;62.70
19050;DHT22;9657;45.940;12.840;2023-04-29T13:44:48;18.80;62.70
19050;DHT22;9657;45.940;12.840;2023-04-29T13:47:15;18.80;62.80
19050;DHT22;9657;45.940;12.840;2023-04-29T13:49:44;18.80;62.80
19050;DHT22;9657;45.940;12.840;2023-04-29T13:52:11;18.80;62.80
19050;DHT22;9657;45.940;12.840;2023-04-29T13:54:38;18.90;62.80
19050;DHT22;9657;45.940;12.840;2023-04-29T13:57:06;18.80;62.80
19050;DHT22;9657;45.940;12.840;2023-04-29T13:59:34;18.80;62.80
19050;DHT22;9657;45.940;12.840;2023-04-29T14:02:01;18.80;62.80
19050;DHT22;9657;45.940;12.840;2023-04-29T14:04:28;18.80;62.80
19050;DHT22;9657;45.940;12.840;2023-04-29T14:06:57;18.80;62.80
19050;DHT22;9657;45.940;12.840;2023-04-29T14:09:24;18.80;62.80
19050;DHT22;9657;45.940;12.840;2023-04-29T14:11:51;18.80;62.80
19050;DHT22;9657;45.940;12.840;2023-04-29T14:14:18;18.90;62.80
19050;DHT22;9657;45.940;12.840;2023-04-29T14:16:45;18.90;62.80
19050;DHT22;9657;45.940;12.840;2023-04-29T14:19:13;18.90;62.80
19050;DHT22;9657;45.940;12.840;2023-04-29T14:21:40;18.90;62.80
19050;DHT22;9657;45.940;12.840;2023-04-29T14:24:09;18.90;62.80
19050;DHT22;9657;45.940;12.840;2023-04-29T14:26:36;18.90;62.70
19050;DHT22;9657;45.940;12.840;2023-04-29T14:29:03;18.90;62.70
19050;DHT22;9657;45.940;12.840;2023-04-29T14:31:32;18.90;62.70
19050;DHT22;9657;45.940;12.840;2023-04-29T14:34:00;18.90;62.60
19050;DHT22;9657;45.940;12.840;2023-04-29T14:36:27;18.90;62.60
19050;DHT22;9657;45.940;12.840;2023-04-29T14:38:54;18.90;62.60
19050;DHT22;9657;45.940;12.840;2023-04-29T14:41:23;18.90;62.70
19050;DHT22;9657;45.940;12.840;2023-04-29T14:43:50;18.90;62.50
19050;DHT22;9657;45.940;12.840;2023-04-29T14:46:17;18.90;62.60
19050;DHT22;9657;45.940;12.840;2023-04-29T14:48:44;18.90;62.70
19050;DHT22;9657;45.940;12.840;2023-04-29T14:51:11;18.90;62.80
19050;DHT22;9657;45.940;12.840;2023-04-29T14:53:38;18.90;62.80
19050;DHT22;9657;45.940;12.840;2023-04-29T14:56:06;18.90;62.70
19050;DHT22;9657;45.940;12.840;2023-04-29T14:58:34;18.90;62.70
19050;DHT22;9657;45.940;12.840;2023-04-29T15:01:01;18.90;62.70
19050;DHT22;9657;45.940;12.840;2023-04-29T15:03:28;19.00;62.70
19050;DHT22;9657;45.940;12.840;2023-04-29T15:05:56;18.90;62.70
19050;DHT22;9657;45.940;12.840;2023-04-29T15:08:23;18.90;62.70
19050;DHT22;9657;45.940;12.840;2023-04-29T15:10:50;19.00;62.80
19050;DHT22;9657;45.940;12.840;2023-04-29T15:13:17;19.00;62.80
19050;DHT22;9657;45.940;12.840;2023-04-29T15:15:46;19.00;62.80
19050;DHT22;9657;45.940;12.840;2023-04-29T15:18:13;19.00;62.90
19050;DHT22;9657;45.940;12.840;2023-04-29T15:20:40;19.00;62.90
19050;DHT22;9657;45.940;12.840;2023-04-29T15:23:07;19.00;63.00
19050;DHT22;9657;45.940;12.840;2023-04-29T15:25:34;19.00;63.00
19050;DHT22;9657;45.940;12.840;2023-04-29T15:28:03;19.00;63.00
19050;DHT22;9657;45.940;12.840;2023-04-29T15:30:30;19.00;63.00
19050;DHT22;9657;45.940;12.840;2023-04-29T15:32:59;19.00;63.10
19050;DHT22;9657;45.940;12.840;2023-04-29T15:35:26;19.00;63.10
19050;DHT22;9657;45.940;12.840;2023-04-29T15:37:53;19.00;63.10
19050;DHT22;9657;45.940;12.840;2023-04-29T15:40:21;19.00;63.20
19050;DHT22;9657;45.940;12.840;2023-04-29T15:42:48;19.00;63.20